Startpagina
METAR-TAF:

METAR-TAF

Vliegvelden :

Gibraltar, Gibraltar

Gibraltar Airport

breedte: 36-09N, lengte: 005-21W, hoogte: 5 m

Actueel weer

Dit bericht is 45 minuten geleden gemaakt, om 11:50 UTC
Wind 9 kt uit het zuidzuidwesten
Temperatuur 18°C
Vochtigheid 56%
Druk 1022 hPa
Zicht 10 km of meer
Weinig wolken op 3300 ft
Verspreide wolken op 3900 ft
Gebroken wolken op 7000 ft

METAR: LXGB 271150Z 20009KT 9999 FEW033 SCT039 BKN070 18/09 Q1022 NOSIG

Tijdstip: 14:35 (12:35 UTC)

Verwachting

Dit bericht is 2 uur en het 16 minuten geleden gemaakt, om 10:19 UTC
Verwachting geldig van 27 om 12 UTC tot 27 om 21 UTC
Wind 8 kt uit het westzuidwesten
Zicht 10 km of meer
Weinig wolken op 2700 ft
Verspreide wolken op 3600 ft

TAF: LXGB 271019Z 2712/2721 24008KT 9999 FEW027 SCT036

Waarnemingen en weersverwachtingen van meer dan 4000 vliegvelden (METAR en TAF).

De beschikbare stations zijn de gele en rode punten op de kaart.

Ga met uw muis naar het station om de naam te zien.

Klik dan om waarnemingen en weersverwachtingen te zien.

kaart wijzigen: klik op de groene knoppen met een zwart kruis om in te zoomen, op de groene knop met een streepje om uit te zoomen of op de groene pijlen voor aangrenzende kaarten.


METAR-TAF: